createdAt,value
2023-04-13T00:00:10.965Z,1.43
2023-04-13T00:02:39.999Z,3.10
2023-04-13T00:05:09.308Z,4.20
2023-04-13T00:07:38.890Z,2.83
2023-04-13T00:10:08.624Z,1.33
2023-04-13T00:12:36.812Z,4.23
2023-04-13T00:15:06.689Z,1.53
2023-04-13T00:17:35.079Z,1.50
2023-04-13T00:20:08.161Z,3.80
2023-04-13T00:22:36.941Z,0.80
2023-04-13T00:25:05.303Z,1.33
2023-04-13T00:27:33.469Z,3.20
2023-04-13T00:30:01.606Z,2.50
2023-04-13T00:32:31.162Z,2.23
2023-04-13T00:34:59.412Z,3.00
2023-04-13T00:37:29.261Z,5.70
2023-04-13T00:39:58.048Z,1.20
2023-04-13T00:42:26.526Z,1.00
2023-04-13T00:44:54.968Z,1.70
2023-04-13T00:47:26.407Z,4.10
2023-04-13T00:49:56.587Z,2.10
2023-04-13T00:52:24.889Z,1.47
2023-04-13T00:54:56.222Z,1.70
2023-04-13T00:57:25.308Z,3.07
2023-04-13T00:59:53.563Z,2.37
2023-04-13T01:02:25.714Z,1.73
2023-04-13T01:04:54.662Z,2.83
2023-04-13T01:07:27.367Z,2.40
2023-04-13T01:09:58.500Z,3.00
2023-04-13T01:12:31.138Z,1.97
2023-04-13T01:15:02.005Z,4.17
2023-04-13T01:17:32.067Z,1.13
2023-04-13T01:20:01.917Z,2.23
2023-04-13T01:22:32.760Z,2.37
2023-04-13T01:25:21.458Z,1.17
2023-04-13T01:27:53.558Z,1.73
2023-04-13T01:30:23.474Z,1.53
2023-04-13T01:32:53.060Z,1.27
2023-04-13T01:35:22.710Z,3.53
2023-04-13T01:37:51.599Z,2.27
2023-04-13T01:40:20.240Z,2.70
2023-04-13T01:42:48.590Z,3.47
2023-04-13T01:45:20.135Z,2.20
2023-04-13T01:47:52.339Z,3.50
2023-04-13T01:50:25.694Z,4.07
2023-04-13T01:52:55.232Z,3.30
2023-04-13T01:55:24.214Z,5.13
2023-04-13T01:57:54.216Z,4.43
2023-04-13T02:00:23.761Z,2.47
2023-04-13T02:02:54.319Z,3.30
2023-04-13T02:05:22.749Z,2.27
2023-04-13T02:07:50.918Z,2.53
2023-04-13T02:10:19.988Z,3.50
2023-04-13T02:12:48.637Z,3.60
2023-04-13T02:15:18.197Z,1.17
2023-04-13T02:17:47.792Z,1.83
2023-04-13T02:20:16.062Z,2.93
2023-04-13T02:22:45.568Z,4.10
2023-04-13T02:25:15.416Z,4.17
2023-04-13T02:27:43.610Z,2.50
2023-04-13T02:30:12.189Z,2.97
2023-04-13T02:32:41.598Z,2.83
2023-04-13T02:35:11.784Z,4.90
2023-04-13T02:37:41.111Z,2.97
2023-04-13T02:40:10.377Z,3.60
2023-04-13T02:42:38.811Z,2.47
2023-04-13T02:45:08.297Z,2.47
2023-04-13T02:47:36.705Z,2.60
2023-04-13T02:50:05.530Z,2.80
2023-04-13T02:52:35.024Z,1.47
2023-04-13T02:55:04.968Z,1.07
2023-04-13T02:57:34.177Z,2.43
2023-04-13T03:00:02.452Z,2.73
2023-04-13T03:02:31.301Z,1.77
2023-04-13T03:05:00.560Z,2.20
2023-04-13T03:07:28.967Z,1.20
2023-04-13T03:09:58.603Z,2.87
2023-04-13T03:12:26.809Z,3.40
2023-04-13T03:14:55.036Z,1.57
2023-04-13T03:17:23.237Z,1.77
2023-04-13T03:19:52.042Z,3.23
2023-04-13T03:22:20.303Z,1.13
2023-04-13T03:24:48.490Z,3.23
2023-04-13T03:27:21.181Z,3.47
2023-04-13T03:29:49.341Z,2.73
2023-04-13T03:32:17.550Z,2.40
2023-04-13T03:34:45.981Z,1.30
2023-04-13T03:37:14.125Z,1.10
2023-04-13T03:39:42.293Z,3.23
2023-04-13T03:42:10.422Z,1.00
2023-04-13T03:44:39.933Z,2.10
2023-04-13T03:47:09.527Z,4.57
2023-04-13T03:49:37.698Z,1.67
2023-04-13T03:52:06.092Z,1.27
2023-04-13T03:54:34.303Z,2.80
2023-04-13T03:57:04.399Z,2.17
2023-04-13T03:59:32.571Z,2.83
2023-04-13T04:02:03.116Z,4.60
2023-04-13T04:04:31.477Z,1.37
2023-04-13T04:06:59.757Z,2.00
2023-04-13T04:09:27.887Z,3.40
2023-04-13T04:11:56.463Z,1.60
2023-04-13T04:14:24.876Z,4.37
2023-04-13T04:16:53.112Z,1.47
2023-04-13T04:19:22.638Z,2.60
2023-04-13T04:21:52.803Z,3.27
2023-04-13T04:24:22.503Z,1.47
2023-04-13T04:26:54.853Z,1.43
2023-04-13T04:29:29.769Z,2.60
2023-04-13T04:31:58.053Z,2.80
2023-04-13T04:34:27.573Z,3.50
2023-04-13T04:36:58.043Z,1.60
2023-04-13T04:39:32.978Z,1.87
2023-04-13T04:42:04.135Z,2.13
2023-04-13T04:44:32.699Z,2.10
2023-04-13T04:47:02.705Z,0.53
2023-04-13T04:49:32.226Z,0.80
2023-04-13T04:52:00.371Z,0.67
2023-04-13T04:54:28.555Z,1.57
2023-04-13T04:56:57.913Z,1.23
2023-04-13T04:59:26.076Z,0.60
2023-04-13T05:01:54.242Z,2.50
2023-04-13T05:04:22.412Z,1.30
2023-04-13T05:06:51.891Z,1.00
2023-04-13T05:09:20.487Z,1.30
2023-04-13T05:11:48.642Z,2.53
2023-04-13T05:14:16.803Z,3.70
2023-04-13T05:16:44.972Z,1.50
2023-04-13T05:19:13.555Z,1.83
2023-04-13T05:21:41.724Z,1.73
2023-04-13T05:24:11.810Z,2.53
2023-04-13T05:26:39.991Z,0.77
2023-04-13T05:29:08.516Z,1.73
2023-04-13T05:31:36.937Z,1.33
2023-04-13T05:34:05.166Z,1.50
2023-04-13T05:36:33.417Z,2.07
2023-04-13T05:39:01.768Z,1.40
2023-04-13T05:41:31.418Z,2.33
2023-04-13T05:43:59.555Z,1.80
2023-04-13T05:46:27.768Z,3.07
2023-04-13T05:48:57.659Z,0.57
2023-04-13T05:51:25.967Z,1.63
2023-04-13T05:53:54.137Z,1.83
2023-04-13T05:56:22.289Z,2.47
2023-04-13T05:58:52.307Z,3.60
2023-04-13T06:01:20.698Z,0.90
2023-04-13T06:03:49.145Z,4.10
2023-04-13T06:06:18.548Z,4.00
2023-04-13T06:08:46.703Z,4.03
2023-04-13T06:11:15.503Z,3.47
2023-04-13T06:13:43.640Z,2.30
2023-04-13T06:16:13.174Z,2.03
2023-04-13T06:18:41.450Z,2.53
2023-04-13T06:21:09.937Z,2.23
2023-04-13T06:23:38.453Z,3.67
2023-04-13T06:26:06.846Z,2.83
2023-04-13T06:28:35.078Z,4.37
2023-04-13T06:31:03.241Z,3.23
2023-04-13T06:33:32.772Z,1.50
2023-04-13T06:36:00.904Z,4.00
2023-04-13T06:38:29.069Z,3.67
2023-04-13T06:41:02.397Z,2.03
2023-04-13T06:43:30.798Z,4.83
2023-04-13T06:46:00.528Z,2.93
2023-04-13T06:48:28.932Z,2.77
2023-04-13T06:50:59.207Z,2.20
2023-04-13T06:53:27.529Z,4.50
2023-04-13T06:55:55.700Z,5.43
2023-04-13T06:58:23.918Z,3.13
2023-04-13T07:00:52.148Z,5.07
2023-04-13T07:03:20.460Z,2.67
2023-04-13T07:05:48.772Z,6.03
2023-04-13T07:08:19.314Z,4.70
2023-04-13T07:10:47.563Z,6.30
2023-04-13T07:13:15.877Z,5.67
2023-04-13T07:15:44.074Z,6.23
2023-04-13T07:18:12.265Z,6.40
2023-04-13T07:20:40.536Z,8.57
2023-04-13T07:23:09.007Z,6.40
2023-04-13T07:25:38.574Z,7.03
2023-04-13T07:28:06.771Z,9.83
2023-04-13T07:30:34.942Z,7.37
2023-04-13T07:33:03.201Z,6.80
2023-04-13T07:35:31.409Z,6.30
2023-04-13T07:37:59.582Z,7.20
2023-04-13T07:40:27.745Z,9.33
2023-04-13T07:42:57.240Z,10.50
2023-04-13T07:45:25.578Z,10.83
2023-04-13T07:47:54.692Z,9.23
2023-04-13T07:50:23.055Z,7.97
2023-04-13T07:52:51.496Z,12.70
2023-04-13T07:55:19.712Z,11.67
2023-04-13T07:57:47.836Z,13.83
2023-04-13T08:00:20.355Z,10.43
2023-04-13T08:02:48.760Z,8.57
2023-04-13T08:05:17.255Z,8.17
2023-04-13T08:07:46.750Z,9.63
2023-04-13T08:10:14.959Z,8.07
2023-04-13T08:12:43.123Z,11.27
2023-04-13T08:15:11.605Z,8.40
2023-04-13T08:17:41.912Z,11.07
2023-04-13T08:20:10.852Z,10.83
2023-04-13T08:22:39.273Z,13.00
2023-04-13T08:25:07.805Z,8.83
2023-04-13T08:27:36.181Z,10.67
2023-04-13T08:30:05.593Z,11.73
2023-04-13T08:32:34.282Z,8.07
2023-04-13T08:35:07.654Z,6.60
2023-04-13T08:37:35.940Z,11.93
2023-04-13T08:40:07.415Z,10.93
2023-04-13T08:42:36.568Z,8.10
2023-04-13T08:45:05.050Z,8.23
2023-04-13T08:47:33.211Z,10.80
2023-04-13T08:50:01.929Z,10.33
2023-04-13T08:52:31.475Z,10.47
2023-04-13T08:55:00.928Z,9.67
2023-04-13T08:57:30.397Z,9.63
2023-04-13T08:59:59.670Z,13.13
2023-04-13T09:02:31.732Z,18.60
2023-04-13T09:05:03.204Z,9.27
2023-04-13T09:07:34.680Z,12.67
2023-04-13T09:10:02.836Z,11.80
2023-04-13T09:12:32.166Z,16.90
2023-04-13T09:15:00.366Z,11.33
2023-04-13T09:17:30.516Z,9.97
2023-04-13T09:19:59.076Z,10.03
2023-04-13T09:22:30.641Z,10.37
2023-04-13T09:25:00.174Z,10.27
2023-04-13T09:27:28.384Z,15.53
2023-04-13T09:29:57.179Z,18.20
2023-04-13T09:32:26.343Z,12.20
2023-04-13T09:35:01.495Z,10.60
2023-04-13T09:37:30.521Z,12.80
2023-04-13T09:40:09.861Z,14.13
2023-04-13T09:42:38.727Z,15.57
2023-04-13T09:45:07.913Z,10.83
2023-04-13T09:47:40.545Z,10.00
2023-04-13T09:50:18.271Z,10.30
2023-04-13T09:52:46.747Z,8.63
2023-04-13T09:55:19.289Z,7.50
2023-04-13T09:57:47.447Z,9.73
2023-04-13T10:00:20.600Z,13.20
2023-04-13T10:02:50.948Z,9.23
2023-04-13T10:05:19.957Z,13.17
2023-04-13T10:07:48.708Z,10.90
2023-04-13T10:10:17.158Z,8.97
2023-04-13T10:12:49.220Z,10.90
2023-04-13T10:15:22.963Z,11.50
2023-04-13T10:17:55.281Z,9.37
2023-04-13T10:20:26.654Z,11.47
2023-04-13T10:22:55.883Z,9.03
2023-04-13T10:25:32.626Z,11.17
2023-04-13T10:28:03.662Z,10.53
2023-04-13T10:30:31.921Z,11.53
2023-04-13T10:33:05.478Z,6.27
2023-04-13T10:35:36.930Z,15.67
2023-04-13T10:38:05.375Z,12.27
2023-04-13T10:40:44.144Z,8.13
2023-04-13T10:43:13.715Z,8.70
2023-04-13T10:45:41.920Z,14.80
2023-04-13T10:48:21.615Z,13.27
2023-04-13T10:50:59.231Z,11.40
2023-04-13T10:53:30.452Z,8.30
2023-04-13T10:55:58.658Z,14.93
2023-04-13T10:58:31.194Z,7.93
2023-04-13T11:01:00.861Z,12.77
2023-04-13T11:03:29.525Z,6.17
2023-04-13T11:05:58.659Z,7.70
2023-04-13T11:08:27.795Z,9.40
2023-04-13T11:10:56.604Z,6.57
2023-04-13T11:13:26.646Z,10.23
2023-04-13T11:16:03.741Z,6.27
2023-04-13T11:18:32.110Z,8.57
2023-04-13T11:21:03.943Z,10.10
2023-04-13T11:23:34.653Z,9.47
2023-04-13T11:26:04.626Z,10.47
2023-04-13T11:28:38.210Z,7.40
2023-04-13T11:31:08.361Z,11.33
2023-04-13T11:33:39.528Z,7.50
2023-04-13T11:36:09.570Z,8.00
2023-04-13T11:38:40.716Z,8.87
2023-04-13T11:41:16.308Z,8.27
2023-04-13T11:43:46.954Z,6.73
2023-04-13T11:46:16.862Z,7.47
2023-04-13T11:48:45.161Z,6.63
2023-04-13T11:51:13.372Z,10.00
2023-04-13T11:53:41.859Z,10.50
2023-04-13T11:56:10.645Z,12.20
2023-04-13T11:58:40.545Z,10.90
2023-04-13T12:01:14.297Z,11.17
2023-04-13T12:04:01.098Z,8.77
2023-04-13T12:06:35.051Z,6.37
2023-04-13T12:09:10.645Z,7.50
2023-04-13T12:11:42.850Z,6.80
2023-04-13T12:19:27.508Z,8.50
2023-04-13T12:21:57.293Z,8.63
2023-04-13T12:24:33.414Z,7.90
2023-04-13T12:29:38.903Z,6.70
2023-04-13T12:32:13.907Z,7.73
2023-04-13T12:34:43.893Z,9.10
2023-04-13T12:37:12.181Z,8.93
2023-04-13T12:39:40.510Z,6.23
2023-04-13T12:42:08.675Z,5.53
2023-04-13T12:44:37.049Z,9.27
2023-04-13T12:47:06.150Z,6.10
2023-04-13T12:49:34.424Z,6.60
2023-04-13T12:52:03.942Z,10.23
2023-04-13T12:54:32.108Z,6.37
2023-04-13T12:57:00.449Z,8.90
2023-04-13T12:59:28.670Z,9.20
2023-04-13T13:01:56.859Z,9.40
2023-04-13T13:04:25.331Z,5.90
2023-04-13T13:06:54.091Z,10.07
2023-04-13T13:09:23.608Z,5.83
2023-04-13T13:11:51.786Z,6.47
2023-04-13T13:14:20.444Z,7.07
2023-04-13T13:16:50.030Z,5.77
2023-04-13T13:19:18.320Z,4.37
2023-04-13T13:21:46.520Z,6.83
2023-04-13T13:24:14.722Z,6.60
2023-04-13T13:27:07.594Z,7.00
2023-04-13T13:29:33.400Z,6.20
2023-04-13T13:32:01.785Z,11.33
2023-04-13T13:34:30.041Z,5.20
2023-04-13T13:36:58.894Z,8.27
2023-04-13T13:39:27.202Z,6.07
2023-04-13T13:41:57.292Z,5.47
2023-04-13T13:44:25.727Z,4.80
2023-04-13T13:46:53.940Z,8.00
2023-04-13T13:49:22.082Z,5.13
2023-04-13T13:51:50.792Z,6.60
2023-04-13T13:54:20.157Z,5.90
2023-04-13T13:56:48.557Z,7.97
2023-04-13T13:59:18.119Z,4.60
2023-04-13T14:01:46.881Z,5.20
2023-04-13T14:04:15.661Z,4.20
2023-04-13T14:06:43.842Z,7.73
2023-04-13T14:09:12.237Z,6.27
2023-04-13T14:11:40.407Z,6.20
2023-04-13T14:14:20.607Z,6.37
2023-04-13T14:16:51.580Z,7.80
2023-04-13T14:19:20.695Z,6.07
2023-04-13T14:21:50.284Z,5.67
2023-04-13T14:24:18.435Z,4.40
2023-04-13T14:26:46.645Z,9.90
2023-04-13T14:29:15.356Z,7.97
2023-04-13T14:31:43.694Z,5.10
2023-04-13T14:34:13.212Z,6.53
2023-04-13T14:36:42.276Z,6.13
2023-04-13T14:39:10.463Z,6.47
2023-04-13T14:41:38.639Z,5.13
2023-04-13T14:44:07.634Z,6.07
2023-04-13T14:46:35.896Z,8.60
2023-04-13T14:49:04.150Z,7.13
2023-04-13T14:51:33.627Z,3.93
2023-04-13T14:54:01.840Z,4.03
2023-04-13T14:56:30.040Z,5.97
2023-04-13T14:58:58.587Z,4.13
2023-04-13T15:01:27.174Z,4.40
2023-04-13T15:03:55.634Z,5.27
2023-04-13T15:06:25.148Z,7.63
2023-04-13T15:08:55.484Z,4.97
2023-04-13T15:11:23.770Z,6.80
2023-04-13T15:13:51.906Z,4.87
2023-04-13T15:16:20.139Z,3.57
2023-04-13T15:18:48.362Z,6.70
2023-04-13T15:21:16.561Z,4.83
2023-04-13T15:23:44.691Z,5.90
2023-04-13T15:26:19.065Z,4.20
2023-04-13T15:28:47.528Z,7.70
2023-04-13T15:31:15.702Z,7.23
2023-04-13T15:33:43.949Z,4.47
2023-04-13T15:36:15.716Z,4.60
2023-04-13T15:38:43.872Z,5.37
2023-04-13T15:41:12.289Z,5.23
2023-04-13T15:43:43.876Z,3.40
2023-04-13T15:46:12.118Z,3.53
2023-04-13T15:48:40.348Z,4.80
2023-04-13T15:51:09.202Z,4.33
2023-04-13T15:53:37.373Z,4.37
2023-04-13T15:56:08.769Z,3.03
2023-04-13T15:58:36.936Z,4.00
2023-04-13T16:01:07.749Z,4.37
2023-04-13T16:03:36.686Z,4.40
2023-04-13T16:06:05.162Z,4.87
2023-04-13T16:08:33.283Z,4.17
2023-04-13T16:11:01.870Z,4.00
2023-04-13T16:13:47.398Z,3.77
2023-04-13T16:16:18.723Z,11.67
2023-04-13T16:18:47.351Z,10.07
2023-04-13T16:21:19.321Z,7.97
2023-04-13T16:23:47.548Z,8.07
2023-04-13T16:26:15.718Z,3.27
2023-04-13T16:28:43.856Z,3.57
2023-04-13T16:31:12.142Z,8.00
2023-04-13T16:33:41.687Z,5.17
2023-04-13T16:36:10.303Z,9.07
2023-04-13T16:38:40.754Z,5.67
2023-04-13T16:41:08.940Z,6.50
2023-04-13T16:43:37.075Z,4.00
2023-04-13T16:46:05.491Z,7.93
2023-04-13T16:48:33.696Z,7.23
2023-04-13T16:51:03.817Z,6.60
2023-04-13T16:53:32.392Z,4.67
2023-04-13T16:56:00.661Z,2.53
2023-04-13T16:58:28.846Z,5.80
2023-04-13T17:00:57.440Z,4.30
2023-04-13T17:03:25.895Z,3.77
2023-04-13T17:05:55.405Z,4.77
2023-04-13T17:08:25.553Z,5.10
2023-04-13T17:10:54.250Z,4.40
2023-04-13T17:13:22.433Z,5.10
2023-04-13T17:15:50.756Z,5.80
2023-04-13T17:18:18.930Z,6.93
2023-04-13T17:20:54.167Z,4.27
2023-04-13T17:23:23.251Z,10.53
2023-04-13T17:25:53.843Z,6.23
2023-04-13T17:28:23.500Z,5.30
2023-04-13T17:30:51.654Z,5.07
2023-04-13T17:33:19.854Z,5.80
2023-04-13T17:35:48.123Z,2.47
2023-04-13T17:38:16.297Z,3.97
2023-04-13T17:40:45.631Z,1.50
2023-04-13T17:43:15.117Z,4.30
2023-04-13T17:45:43.305Z,4.23
2023-04-13T17:48:11.523Z,5.13
2023-04-13T17:50:39.725Z,5.40
2023-04-13T17:53:07.902Z,2.43
2023-04-13T17:55:37.522Z,2.53
2023-04-13T17:58:05.752Z,3.53
2023-04-13T18:00:35.471Z,3.27
2023-04-13T18:03:05.697Z,2.97
2023-04-13T18:05:34.295Z,4.70
2023-04-13T18:08:03.057Z,1.90
2023-04-13T18:10:32.539Z,4.93
2023-04-13T18:13:01.619Z,3.13
2023-04-13T18:15:30.030Z,4.33
2023-04-13T18:17:59.928Z,2.43
2023-04-13T18:20:28.356Z,4.20
2023-04-13T18:22:56.752Z,2.77
2023-04-13T18:25:24.902Z,3.87
2023-04-13T18:27:54.111Z,1.73
2023-04-13T18:30:22.532Z,5.63
2023-04-13T18:32:51.412Z,3.63
2023-04-13T18:35:20.995Z,3.83
2023-04-13T18:37:49.119Z,3.23
2023-04-13T18:40:17.262Z,2.77
2023-04-13T18:42:47.581Z,2.93
2023-04-13T18:45:15.794Z,2.80
2023-04-13T18:47:44.108Z,4.73
2023-04-13T18:50:12.888Z,2.37
2023-04-13T18:52:42.484Z,2.77
2023-04-13T18:55:11.030Z,2.87
2023-04-13T18:57:40.708Z,4.87
2023-04-13T19:00:10.334Z,7.93
2023-04-13T19:02:38.781Z,2.70
2023-04-13T19:05:07.483Z,2.17
2023-04-13T19:07:39.036Z,4.57
2023-04-13T19:10:09.329Z,5.83
2023-04-13T19:12:37.829Z,3.37
2023-04-13T19:15:06.498Z,4.07
2023-04-13T19:17:34.806Z,2.93
2023-04-13T19:20:06.254Z,3.13
2023-04-13T19:22:34.412Z,3.03
2023-04-13T19:25:02.716Z,6.43
2023-04-13T19:27:32.877Z,6.60
2023-04-13T19:30:01.121Z,3.77
2023-04-13T19:32:30.535Z,5.20
2023-04-13T19:34:58.858Z,4.87
2023-04-13T19:37:27.054Z,3.27
2023-04-13T19:39:55.214Z,3.30
2023-04-13T19:42:25.220Z,3.00
2023-04-13T19:44:56.075Z,3.70
2023-04-13T19:47:24.295Z,5.43
2023-04-13T19:49:52.485Z,5.27
2023-04-13T19:52:20.944Z,3.10
2023-04-13T19:54:49.094Z,3.73
2023-04-13T19:57:17.275Z,6.53
2023-04-13T19:59:45.518Z,3.30
2023-04-13T20:02:15.089Z,3.40
2023-04-13T20:04:43.979Z,5.33
2023-04-13T20:07:12.307Z,6.27
2023-04-13T20:09:40.470Z,4.50
2023-04-13T20:12:08.900Z,4.57
2023-04-13T20:14:37.172Z,6.63
2023-04-13T20:17:05.374Z,3.43
2023-04-13T20:19:36.263Z,5.97
2023-04-13T20:22:05.060Z,2.37
2023-04-13T20:24:33.332Z,3.90
2023-04-13T20:27:01.524Z,2.90
2023-04-13T20:29:29.754Z,3.60
2023-04-13T20:31:58.088Z,2.97
2023-04-13T20:34:27.854Z,3.37
2023-04-13T20:36:58.809Z,4.83
2023-04-13T20:39:29.866Z,3.93
2023-04-13T20:42:00.724Z,3.90
2023-04-13T20:44:29.249Z,3.10
2023-04-13T20:46:57.484Z,4.80
2023-04-13T20:49:25.963Z,5.43
2023-04-13T20:51:55.780Z,5.40
2023-04-13T20:54:25.327Z,4.40
2023-04-13T20:56:53.482Z,6.20
2023-04-13T20:59:21.889Z,4.30
2023-04-13T21:01:51.138Z,5.10
2023-04-13T21:04:19.421Z,4.60
2023-04-13T21:06:48.187Z,5.70
2023-04-13T21:09:16.357Z,4.40
2023-04-13T21:11:47.560Z,3.37
2023-04-13T21:14:16.150Z,5.33
2023-04-13T21:16:44.350Z,6.53
2023-04-13T21:19:12.572Z,7.07
2023-04-13T21:21:40.736Z,4.43
2023-04-13T21:24:09.182Z,5.67
2023-04-13T21:26:37.368Z,3.90
2023-04-13T21:29:07.524Z,5.57
2023-04-13T21:31:35.793Z,7.53
2023-04-13T21:34:04.577Z,3.73
2023-04-13T21:39:04.283Z,5.43
2023-04-13T21:41:32.465Z,5.97
2023-04-13T21:44:00.916Z,6.93
2023-04-13T21:46:30.742Z,8.47
2023-04-13T21:48:59.387Z,5.13
2023-04-13T21:51:28.238Z,4.83
2023-04-13T21:53:57.173Z,5.90
2023-04-13T21:56:25.313Z,6.67
2023-04-13T21:58:53.796Z,5.80
2023-04-13T22:01:21.964Z,10.73
2023-04-13T22:03:53.103Z,4.47
2023-04-13T22:06:21.672Z,6.40
2023-04-13T22:08:49.857Z,10.93
2023-04-13T22:11:17.999Z,4.20
2023-04-13T22:13:46.184Z,7.60
2023-04-13T22:16:14.557Z,6.13
2023-04-13T22:18:43.056Z,5.60
2023-04-13T22:21:12.574Z,4.80
2023-04-13T22:23:40.763Z,7.23
2023-04-13T22:26:08.938Z,6.57
2023-04-13T22:28:37.101Z,3.80
2023-04-13T22:31:08.546Z,4.77
2023-04-13T22:33:37.062Z,4.57
2023-04-13T22:36:05.612Z,3.70
2023-04-13T22:38:35.170Z,5.37
2023-04-13T22:41:07.692Z,6.73
2023-04-13T22:43:35.997Z,3.80
2023-04-13T22:46:04.213Z,4.33
2023-04-13T22:48:32.448Z,4.17
2023-04-13T22:51:00.887Z,5.10
2023-04-13T22:53:29.173Z,3.87
2023-04-13T22:55:59.216Z,3.27
2023-04-13T22:58:27.558Z,7.00
2023-04-13T23:00:55.717Z,3.40
2023-04-13T23:03:24.095Z,4.17
2023-04-13T23:05:52.361Z,6.47
2023-04-13T23:08:20.502Z,5.13
2023-04-13T23:10:49.503Z,6.17
2023-04-13T23:13:19.026Z,5.83
2023-04-13T23:15:47.175Z,6.30
2023-04-13T23:18:15.349Z,4.20
2023-04-13T23:20:43.556Z,3.93
2023-04-13T23:23:11.730Z,3.87
2023-04-13T23:25:39.903Z,3.77
2023-04-13T23:28:08.060Z,6.90
2023-04-13T23:30:37.705Z,5.63
2023-04-13T23:33:05.946Z,2.33
2023-04-13T23:35:34.141Z,7.80
2023-04-13T23:38:02.306Z,4.60
2023-04-13T23:40:30.597Z,6.07
2023-04-13T23:42:58.906Z,4.30
2023-04-13T23:45:27.113Z,4.23
2023-04-13T23:47:56.801Z,7.13
2023-04-13T23:50:25.027Z,2.93
2023-04-13T23:52:54.451Z,7.33
2023-04-13T23:55:22.655Z,5.87
2023-04-13T23:57:50.852Z,7.07
